createdAt,value
2022-12-26T00:01:32.567Z,3.50
2022-12-26T00:04:01.178Z,3.55
2022-12-26T00:06:31.006Z,3.28
2022-12-26T00:09:02.000Z,3.38
2022-12-26T00:11:30.415Z,2.72
2022-12-26T00:13:59.726Z,3.22
2022-12-26T00:16:28.380Z,3.53
2022-12-26T00:18:57.242Z,3.30
2022-12-26T00:21:27.470Z,3.05
2022-12-26T00:23:56.369Z,3.38
2022-12-26T00:26:26.926Z,2.92
2022-12-26T00:28:55.972Z,3.25
2022-12-26T00:31:26.156Z,3.30
2022-12-26T00:33:54.719Z,3.40
2022-12-26T00:36:24.179Z,3.45
2022-12-26T00:38:53.245Z,3.08
2022-12-26T00:41:22.930Z,2.78
2022-12-26T00:43:52.618Z,3.53
2022-12-26T00:46:21.307Z,3.00
2022-12-26T00:48:49.807Z,3.08
2022-12-26T00:51:18.482Z,3.30
2022-12-26T00:53:46.884Z,3.28
2022-12-26T00:56:15.594Z,3.35
2022-12-26T00:58:43.900Z,2.88
2022-12-26T01:01:14.703Z,2.97
2022-12-26T01:03:43.384Z,2.90
2022-12-26T01:06:11.794Z,3.25
2022-12-26T01:08:40.539Z,2.80
2022-12-26T01:11:09.544Z,3.00
2022-12-26T01:13:38.156Z,2.75
2022-12-26T01:16:07.111Z,3.00
2022-12-26T01:18:37.261Z,2.60
2022-12-26T01:21:07.806Z,3.28
2022-12-26T01:23:36.931Z,2.78
2022-12-26T01:26:15.045Z,2.67
2022-12-26T01:28:49.224Z,2.60
2022-12-26T01:31:19.454Z,3.15
2022-12-26T01:33:50.121Z,2.80
2022-12-26T01:36:19.760Z,2.75
2022-12-26T01:38:48.431Z,2.80
2022-12-26T01:41:25.739Z,2.45
2022-12-26T01:43:56.635Z,3.00
2022-12-26T01:46:28.028Z,3.03
2022-12-26T01:48:59.441Z,2.83
2022-12-26T01:51:30.441Z,3.28
2022-12-26T01:54:40.572Z,2.97
2022-12-26T01:56:50.352Z,2.53
2022-12-26T01:59:20.392Z,2.17
2022-12-26T02:01:49.693Z,2.90
2022-12-26T02:04:40.961Z,2.85
2022-12-26T02:07:09.821Z,2.60
2022-12-26T02:09:38.983Z,3.03
2022-12-26T02:12:37.305Z,2.85
2022-12-26T02:15:03.993Z,3.03
2022-12-26T02:17:32.523Z,2.58
2022-12-26T02:20:07.139Z,2.47
2022-12-26T02:22:55.196Z,3.00
2022-12-26T02:25:50.021Z,2.78
2022-12-26T02:28:28.106Z,2.58
2022-12-26T02:30:58.785Z,2.78
2022-12-26T02:33:41.643Z,2.78
2022-12-26T02:36:19.081Z,2.50
2022-12-26T02:38:51.905Z,2.33
2022-12-26T02:41:27.073Z,2.80
2022-12-26T02:44:22.417Z,2.47
2022-12-26T02:47:03.357Z,2.80
2022-12-26T02:49:57.464Z,2.97
2022-12-26T02:52:49.025Z,2.75
2022-12-26T02:55:35.941Z,3.15
2022-12-26T02:58:24.725Z,3.03
2022-12-26T03:01:14.302Z,2.63
2022-12-26T03:04:03.149Z,2.67
2022-12-26T03:06:50.451Z,2.97
2022-12-26T03:09:38.255Z,2.72
2022-12-26T03:12:27.137Z,2.40
2022-12-26T03:14:57.562Z,2.65
2022-12-26T03:17:27.596Z,2.90
2022-12-26T03:20:01.711Z,2.45
2022-12-26T03:22:33.901Z,2.20
2022-12-26T03:25:20.906Z,2.53
2022-12-26T03:27:49.271Z,2.40
2022-12-26T03:30:35.670Z,2.75
2022-12-26T03:33:04.215Z,2.90
2022-12-26T03:35:34.486Z,2.70
2022-12-26T03:38:06.112Z,2.42
2022-12-26T03:40:59.230Z,2.38
2022-12-26T03:43:59.623Z,2.70
2022-12-26T03:46:49.820Z,2.38
2022-12-26T03:49:37.644Z,2.58
2022-12-26T03:52:27.556Z,2.45
2022-12-26T03:55:16.565Z,2.97
2022-12-26T03:58:08.048Z,2.70
2022-12-26T04:00:54.589Z,2.55
2022-12-26T04:03:41.790Z,2.80
2022-12-26T04:06:34.160Z,2.60
2022-12-26T04:09:25.807Z,2.20
2022-12-26T04:12:13.375Z,2.90
2022-12-26T04:15:02.896Z,2.38
2022-12-26T04:17:52.727Z,2.40
2022-12-26T04:20:24.045Z,2.70
2022-12-26T04:23:13.059Z,2.97
2022-12-26T04:26:03.965Z,2.50
2022-12-26T04:28:49.746Z,2.38
2022-12-26T04:31:39.775Z,2.40
2022-12-26T04:34:28.185Z,2.15
2022-12-26T04:37:17.259Z,2.95
2022-12-26T04:40:04.156Z,2.75
2022-12-26T04:42:51.874Z,2.60
2022-12-26T04:45:20.964Z,2.67
2022-12-26T04:48:05.189Z,2.45
2022-12-26T04:50:33.723Z,2.30
2022-12-26T04:53:02.281Z,2.30
2022-12-26T04:55:31.909Z,2.58
2022-12-26T04:58:02.019Z,2.78
2022-12-26T05:00:30.791Z,2.35
2022-12-26T05:03:20.300Z,2.03
2022-12-26T05:06:08.015Z,2.70
2022-12-26T05:08:55.954Z,2.00
2022-12-26T05:11:25.645Z,3.05
2022-12-26T05:13:55.906Z,2.15
2022-12-26T05:16:42.115Z,2.63
2022-12-26T05:19:40.936Z,2.35
2022-12-26T05:22:29.281Z,1.98
2022-12-26T05:25:15.063Z,2.47
2022-12-26T05:28:03.466Z,2.08
2022-12-26T05:30:33.112Z,2.20
2022-12-26T05:33:19.069Z,2.10
2022-12-26T05:35:47.438Z,2.33
2022-12-26T05:38:16.127Z,2.00
2022-12-26T05:40:44.545Z,2.10
2022-12-26T05:43:12.966Z,2.33
2022-12-26T05:45:42.708Z,2.45
2022-12-26T05:48:11.058Z,2.38
2022-12-26T05:50:39.411Z,2.30
2022-12-26T05:53:07.827Z,2.70
2022-12-26T05:55:36.227Z,2.30
2022-12-26T05:58:04.629Z,2.20
2022-12-26T06:00:33.476Z,1.85
2022-12-26T06:03:03.295Z,2.17
2022-12-26T06:05:31.857Z,2.13
2022-12-26T06:08:02.483Z,2.25
2022-12-26T06:10:30.937Z,2.28
2022-12-26T06:12:59.579Z,2.67
2022-12-26T06:15:28.245Z,2.20
2022-12-26T06:18:13.067Z,2.30
2022-12-26T06:28:55.525Z,2.17
2022-12-26T06:31:51.841Z,2.63
2022-12-26T06:34:56.433Z,2.17
2022-12-26T06:37:28.420Z,2.20
2022-12-26T06:40:46.724Z,2.50
2022-12-26T06:43:26.823Z,2.22
2022-12-26T06:46:28.790Z,2.05
2022-12-26T06:49:09.877Z,2.80
2022-12-26T06:51:57.558Z,2.30
2022-12-26T06:54:30.282Z,2.38
2022-12-26T07:01:04.603Z,2.63
2022-12-26T07:11:52.176Z,2.33
2022-12-26T07:16:11.052Z,2.15
2022-12-26T07:23:46.928Z,2.53
2022-12-26T07:27:08.749Z,2.13
2022-12-26T07:30:28.281Z,2.45
2022-12-26T07:33:13.555Z,3.05
2022-12-26T07:35:42.453Z,2.28
2022-12-26T07:38:14.744Z,2.13
2022-12-26T07:40:43.439Z,2.30
2022-12-26T07:43:12.095Z,2.75
2022-12-26T07:45:45.638Z,2.22
2022-12-26T07:48:14.489Z,2.53
2022-12-26T07:50:46.956Z,2.20
2022-12-26T07:53:17.271Z,2.47
2022-12-26T07:55:55.753Z,2.90
2022-12-26T07:58:24.980Z,2.92
2022-12-26T08:01:09.060Z,3.13
2022-12-26T08:03:38.188Z,2.63
2022-12-26T08:06:06.707Z,2.72
2022-12-26T08:08:40.337Z,3.13
2022-12-26T08:11:16.100Z,2.40
2022-12-26T08:13:44.675Z,2.97
2022-12-26T08:16:14.939Z,3.00
2022-12-26T08:18:46.003Z,2.88
2022-12-26T08:21:16.848Z,2.60
2022-12-26T08:23:48.980Z,2.53
2022-12-26T08:26:22.592Z,2.55
2022-12-26T08:28:52.476Z,3.15
2022-12-26T08:31:21.903Z,3.40
2022-12-26T08:33:50.678Z,2.92
2022-12-26T08:36:19.224Z,3.15
2022-12-26T08:38:49.007Z,2.83
2022-12-26T08:41:18.336Z,2.92
2022-12-26T08:46:38.119Z,3.00
2022-12-26T08:49:06.470Z,2.90
2022-12-26T08:51:34.836Z,3.70
2022-12-26T08:54:05.483Z,3.22
2022-12-26T08:56:33.989Z,3.05
2022-12-26T08:59:02.273Z,2.67
2022-12-26T09:01:32.281Z,2.60
2022-12-26T09:04:04.791Z,3.13
2022-12-26T09:06:34.109Z,2.80
2022-12-26T09:09:02.571Z,2.25
2022-12-26T09:11:32.538Z,3.10
2022-12-26T09:14:01.955Z,2.65
2022-12-26T09:16:37.155Z,2.65
2022-12-26T09:19:07.436Z,2.70
2022-12-26T09:21:35.780Z,2.50
2022-12-26T09:24:05.162Z,2.60
2022-12-26T09:26:35.206Z,3.10
2022-12-26T09:29:03.799Z,2.80
2022-12-26T09:31:33.312Z,2.60
2022-12-26T09:34:04.309Z,2.88
2022-12-26T09:36:35.273Z,2.33
2022-12-26T09:39:03.832Z,2.40
2022-12-26T09:41:46.021Z,2.72
2022-12-26T09:44:17.837Z,2.28
2022-12-26T09:46:50.546Z,2.72
2022-12-26T09:49:20.659Z,2.40
2022-12-26T09:51:51.274Z,2.55
2022-12-26T09:54:22.998Z,2.50
2022-12-26T09:57:02.383Z,2.20
2022-12-26T09:59:32.771Z,2.20
2022-12-26T10:02:01.664Z,1.77
2022-12-26T10:04:32.737Z,2.03
2022-12-26T10:07:07.107Z,2.30
2022-12-26T10:09:46.097Z,2.10
2022-12-26T10:12:24.176Z,2.22
2022-12-26T10:14:56.817Z,2.15
2022-12-26T10:17:29.616Z,2.00
2022-12-26T10:20:04.716Z,2.10
2022-12-26T10:22:41.080Z,1.80
2022-12-26T10:25:16.600Z,1.95
2022-12-26T10:27:47.777Z,2.00
2022-12-26T10:30:28.372Z,1.88
2022-12-26T10:32:59.437Z,1.70
2022-12-26T10:35:31.435Z,1.95
2022-12-26T10:38:01.556Z,1.60
2022-12-26T10:40:33.088Z,1.70
2022-12-26T10:43:13.690Z,1.58
2022-12-26T10:59:22.507Z,1.40
2022-12-26T11:01:51.455Z,1.80
2022-12-26T11:04:44.471Z,1.58
2022-12-26T11:07:11.670Z,1.50
2022-12-26T11:09:41.226Z,1.65
2022-12-26T11:12:20.337Z,1.55
2022-12-26T11:14:50.233Z,1.80
2022-12-26T11:17:26.565Z,1.52
2022-12-26T11:20:09.788Z,1.50
2022-12-26T11:22:38.139Z,1.70
2022-12-26T11:25:15.053Z,1.25
2022-12-26T11:27:45.480Z,1.45
2022-12-26T11:30:19.702Z,1.48
2022-12-26T11:32:50.266Z,1.60
2022-12-26T11:35:20.291Z,1.70
2022-12-26T11:37:51.990Z,1.30
2022-12-26T11:40:21.678Z,1.15
2022-12-26T11:42:51.727Z,1.50
2022-12-26T11:45:25.449Z,1.50
2022-12-26T11:47:55.428Z,1.60
2022-12-26T11:50:27.042Z,1.33
2022-12-26T11:53:05.792Z,1.60
2022-12-26T11:55:35.127Z,1.60
2022-12-26T11:58:06.333Z,1.30
2022-12-26T12:00:37.418Z,1.35
2022-12-26T12:03:11.431Z,1.60
2022-12-26T12:05:44.422Z,1.40
2022-12-26T12:08:22.127Z,1.60
2022-12-26T12:10:55.663Z,1.42
2022-12-26T12:13:40.264Z,1.30
2022-12-26T12:16:15.976Z,1.70
2022-12-26T12:18:49.927Z,1.25
2022-12-26T12:21:21.983Z,1.30
2022-12-26T12:23:57.715Z,1.50
2022-12-26T12:26:28.871Z,1.30
2022-12-26T12:29:09.782Z,1.40
2022-12-26T12:31:47.033Z,1.80
2022-12-26T12:34:20.637Z,1.45
2022-12-26T12:36:53.937Z,1.85
2022-12-26T12:39:37.365Z,1.77
2022-12-26T12:42:10.994Z,1.60
2022-12-26T12:44:51.449Z,1.42
2022-12-26T12:47:28.833Z,1.85
2022-12-26T12:50:03.037Z,1.70
2022-12-26T12:52:41.862Z,2.17
2022-12-26T12:55:34.356Z,1.67
2022-12-26T12:58:05.991Z,1.55
2022-12-26T13:00:40.102Z,1.45
2022-12-26T13:03:12.445Z,1.60
2022-12-26T13:05:46.077Z,1.50
2022-12-26T13:08:16.114Z,1.40
2022-12-26T13:10:50.896Z,1.55
2022-12-26T13:13:21.799Z,1.33
2022-12-26T13:15:54.293Z,1.20
2022-12-26T13:18:25.056Z,1.85
2022-12-26T13:20:55.775Z,1.80
2022-12-26T13:23:45.660Z,1.42
2022-12-26T13:26:16.179Z,2.45
2022-12-26T13:28:50.516Z,1.98
2022-12-26T13:31:19.003Z,1.30
2022-12-26T13:33:48.755Z,1.48
2022-12-26T13:36:31.925Z,1.20
2022-12-26T13:39:17.757Z,1.33
2022-12-26T13:42:05.542Z,1.25
2022-12-26T13:44:33.886Z,1.30
2022-12-26T13:47:02.298Z,1.40
2022-12-26T13:49:36.227Z,1.20
2022-12-26T13:52:23.293Z,1.20
2022-12-26T13:55:09.253Z,1.30
2022-12-26T13:57:40.051Z,1.42
2022-12-26T14:00:17.718Z,1.40
2022-12-26T14:03:19.126Z,1.15
2022-12-26T14:05:59.574Z,1.80
2022-12-26T14:08:33.137Z,1.92
2022-12-26T14:11:07.652Z,2.70
2022-12-26T14:13:48.794Z,2.22
2022-12-26T14:16:20.993Z,2.47
2022-12-26T14:18:52.182Z,1.35
2022-12-26T14:21:26.334Z,1.27
2022-12-26T14:23:59.602Z,0.80
2022-12-26T14:26:32.968Z,0.70
2022-12-26T14:29:03.926Z,0.70
2022-12-26T14:31:36.836Z,0.68
2022-12-26T14:34:10.735Z,0.90
2022-12-26T14:36:44.371Z,0.68
2022-12-26T14:39:19.550Z,0.80
2022-12-26T14:42:24.544Z,1.00
2022-12-26T14:44:54.494Z,0.88
2022-12-26T14:47:37.111Z,1.10
2022-12-26T14:50:20.364Z,0.82
2022-12-26T14:52:50.531Z,1.38
2022-12-26T14:55:41.512Z,1.13
2022-12-26T14:58:28.511Z,1.40
2022-12-26T15:00:57.360Z,0.73
2022-12-26T15:03:46.641Z,1.10
2022-12-26T15:06:32.818Z,0.90
2022-12-26T15:09:11.202Z,0.80
2022-12-26T15:11:54.430Z,1.35
2022-12-26T15:14:34.262Z,1.13
2022-12-26T15:17:09.422Z,1.13
2022-12-26T15:19:58.999Z,1.27
2022-12-26T15:22:48.958Z,1.17
2022-12-26T15:25:47.538Z,0.88
2022-12-26T15:28:30.780Z,1.20
2022-12-26T15:31:08.937Z,1.10
2022-12-26T15:33:40.495Z,1.23
2022-12-26T15:36:16.275Z,1.08
2022-12-26T15:38:47.959Z,0.90
2022-12-26T15:41:17.814Z,1.15
2022-12-26T15:43:51.320Z,1.20
2022-12-26T15:46:22.964Z,0.93
2022-12-26T15:48:56.081Z,0.90
2022-12-26T15:51:29.779Z,0.90
2022-12-26T15:54:02.869Z,1.20
2022-12-26T15:56:56.492Z,0.85
2022-12-26T15:59:45.700Z,1.20
2022-12-26T16:02:16.671Z,1.83
2022-12-26T16:04:48.552Z,1.48
2022-12-26T16:07:23.130Z,1.85
2022-12-26T16:09:52.865Z,1.80
2022-12-26T16:12:22.996Z,0.90
2022-12-26T16:15:01.351Z,0.80
2022-12-26T16:17:31.479Z,1.10
2022-12-26T16:19:59.799Z,1.40
2022-12-26T16:22:47.197Z,1.00
2022-12-26T16:25:17.172Z,1.20
2022-12-26T16:27:46.479Z,1.10
2022-12-26T16:30:16.771Z,1.10
2022-12-26T16:32:46.539Z,1.00
2022-12-26T16:35:19.436Z,1.00
2022-12-26T16:37:48.330Z,1.40
2022-12-26T16:40:24.268Z,1.90
2022-12-26T16:42:57.581Z,1.58
2022-12-26T16:45:38.783Z,1.45
2022-12-26T16:48:28.114Z,1.20
2022-12-26T16:51:00.877Z,1.00
2022-12-26T16:53:43.369Z,1.25
2022-12-26T16:56:25.020Z,1.13
2022-12-26T16:58:58.681Z,1.10
2022-12-26T17:01:34.768Z,1.00
2022-12-26T17:04:12.433Z,1.35
2022-12-26T17:06:49.547Z,0.95
2022-12-26T17:09:25.447Z,1.38
2022-12-26T17:19:04.177Z,1.15
2022-12-26T17:22:06.032Z,1.08
2022-12-26T17:39:11.529Z,0.90
2022-12-26T17:41:46.580Z,1.00
2022-12-26T17:44:36.816Z,0.73
2022-12-26T17:47:31.154Z,0.90
2022-12-26T17:50:19.976Z,0.77
2022-12-26T17:52:50.053Z,0.65
2022-12-26T17:55:19.810Z,0.77
2022-12-26T17:58:29.464Z,0.70
2022-12-26T18:01:46.347Z,1.13
2022-12-26T18:04:17.072Z,0.77
2022-12-26T18:06:48.394Z,0.80
2022-12-26T18:09:25.501Z,0.70
2022-12-26T18:12:04.474Z,1.23
2022-12-26T18:14:33.335Z,1.13
2022-12-26T18:17:02.017Z,1.00
2022-12-26T18:19:32.888Z,0.88
2022-12-26T18:22:01.347Z,1.10
2022-12-26T18:24:31.813Z,0.80
2022-12-26T18:27:09.752Z,0.90
2022-12-26T18:29:47.556Z,0.90
2022-12-26T18:32:25.860Z,1.45
2022-12-26T18:34:55.077Z,4.13
2022-12-26T18:37:24.142Z,2.08
2022-12-26T18:39:54.456Z,1.20
2022-12-26T18:42:27.401Z,1.23
2022-12-26T18:53:23.227Z,1.08
2022-12-26T18:55:53.211Z,0.88
2022-12-26T18:58:25.907Z,1.20
2022-12-26T19:00:54.656Z,0.80
2022-12-26T19:03:23.318Z,3.17
2022-12-26T19:05:51.803Z,0.82
2022-12-26T19:08:20.276Z,0.70
2022-12-26T19:10:48.658Z,1.00
2022-12-26T19:13:18.430Z,1.10
2022-12-26T19:15:49.249Z,0.63
2022-12-26T19:18:17.621Z,1.10
2022-12-26T19:20:46.205Z,1.00
2022-12-26T19:23:15.561Z,1.10
2022-12-26T19:25:47.540Z,0.93
2022-12-26T19:28:16.210Z,1.30
2022-12-26T19:30:45.962Z,1.05
2022-12-26T19:37:34.246Z,1.08
2022-12-26T19:40:02.948Z,1.52
2022-12-26T19:46:18.791Z,1.20
2022-12-26T20:37:03.318Z,1.23
2022-12-26T20:45:20.841Z,2.08
2022-12-26T20:55:07.242Z,1.83
2022-12-26T20:57:48.027Z,1.40
2022-12-26T21:00:49.590Z,1.50
2022-12-26T21:04:27.434Z,1.38
2022-12-26T21:07:18.483Z,1.17
2022-12-26T21:10:03.824Z,1.38
2022-12-26T21:12:41.436Z,0.93
2022-12-26T21:19:54.172Z,1.17
2022-12-26T21:22:33.692Z,1.13
2022-12-26T21:25:22.189Z,0.90
2022-12-26T21:27:58.882Z,1.17
2022-12-26T21:30:28.020Z,1.05
2022-12-26T21:33:02.751Z,0.80
2022-12-26T21:36:13.948Z,0.90
2022-12-26T21:38:49.755Z,0.80
2022-12-26T21:41:18.344Z,1.17
2022-12-26T21:51:16.492Z,0.90
2022-12-26T21:53:47.016Z,0.70
2022-12-26T21:56:21.568Z,1.15
2022-12-26T21:59:34.528Z,0.75
2022-12-26T22:05:28.921Z,0.70
2022-12-26T22:08:36.510Z,0.80
2022-12-26T22:11:36.391Z,1.10
2022-12-26T22:14:06.310Z,0.80
2022-12-26T22:17:01.880Z,0.90
2022-12-26T22:19:46.619Z,1.17
2022-12-26T22:22:15.236Z,1.75
2022-12-26T22:24:59.826Z,1.02
2022-12-26T22:27:46.770Z,1.13
2022-12-26T22:30:15.567Z,0.90
2022-12-26T22:32:47.879Z,1.08
2022-12-26T22:35:30.013Z,1.20
2022-12-26T22:38:00.311Z,1.10
2022-12-26T22:40:35.238Z,1.08
2022-12-26T22:43:03.780Z,1.45
2022-12-26T22:45:32.209Z,1.00
2022-12-26T22:48:39.495Z,0.80
2022-12-26T22:51:51.469Z,0.80
2022-12-26T22:54:26.994Z,0.90
2022-12-26T22:56:55.503Z,1.10
2022-12-26T22:59:57.909Z,0.90
2022-12-26T23:02:25.321Z,1.20
2022-12-26T23:05:16.326Z,0.82
2022-12-26T23:07:56.130Z,0.80
2022-12-26T23:10:26.605Z,0.80
2022-12-26T23:20:35.040Z,0.82
2022-12-26T23:23:15.868Z,0.82
2022-12-26T23:26:15.153Z,1.05
2022-12-26T23:29:01.196Z,0.90
2022-12-26T23:31:29.958Z,1.05
2022-12-26T23:34:03.850Z,1.30
2022-12-26T23:36:32.984Z,0.88
2022-12-26T23:39:03.186Z,0.90
2022-12-26T23:41:31.907Z,1.10
2022-12-26T23:44:00.818Z,1.02
2022-12-26T23:46:33.092Z,1.08
2022-12-26T23:49:02.543Z,1.10
2022-12-26T23:51:31.469Z,1.10
2022-12-26T23:54:00.049Z,0.85
2022-12-26T23:56:49.658Z,1.20
2022-12-26T23:59:19.701Z,1.50
